Time,TemperatureF,DewpointF,PressureIn,WindDirection,WindDirectionDegrees,WindSpeedMPH,WindSpeedGustMPH,Humidity,HourlyPrecipIn,Conditions,Clouds,dailyrainin,SolarRadiationWatts/m^2,SoftwareType,DateUTC
2013-07-25 00:01:00,65.0,60.0,29.93,West,277,1.0,5.0,83,0.00,,,0.00,0.000000,,2013-07-25 07:01:00,
2013-07-25 00:22:00,65.0,60.0,29.93,West,276,2.0,3.0,83,0.00,,,0.00,0.000000,,2013-07-25 07:22:00,
2013-07-25 00:32:00,65.0,60.0,29.93,West,276,1.0,3.0,83,0.00,,,0.00,0.000000,,2013-07-25 07:32:00,
2013-07-25 00:43:00,65.0,60.0,29.93,West,276,1.0,3.0,83,0.00,,,0.00,0.000000,,2013-07-25 07:43:00,
2013-07-25 00:53:00,65.0,60.0,29.93,West,276,0.0,3.0,83,0.00,,,0.00,0.000000,,2013-07-25 07:53:00,
2013-07-25 01:02:00,65.0,60.0,29.93,West,276,2.0,3.0,83,0.00,,,0.00,0.000000,,2013-07-25 08:02:00,
2013-07-25 01:12:00,65.0,60.0,29.93,West,276,0.0,3.0,84,0.00,,,0.00,0.000000,,2013-07-25 08:12:00,
2013-07-25 01:32:00,65.0,60.0,29.93,West,276,1.0,3.0,84,0.00,,,0.00,0.000000,,2013-07-25 08:32:00,
2013-07-25 01:44:00,65.0,60.0,29.93,West,276,1.0,3.0,84,0.00,,,0.00,0.000000,,2013-07-25 08:44:00,
2013-07-25 01:52:00,65.0,60.0,29.93,West,277,3.0,5.0,84,0.00,,,0.00,0.000000,,2013-07-25 08:52:00,
2013-07-25 02:02:00,65.0,60.0,29.93,West,277,3.0,5.0,84,0.00,,,0.00,0.000000,,2013-07-25 09:02:00,
2013-07-25 02:21:00,64.0,59.0,29.93,West,274,3.0,5.0,84,0.00,,,0.00,0.000000,,2013-07-25 09:21:00,
2013-07-25 02:32:00,64.0,59.0,29.93,West,274,3.0,5.0,84,0.00,,,0.00,0.000000,,2013-07-25 09:32:00,
2013-07-25 02:43:00,64.0,59.0,29.93,West,269,1.0,5.0,85,0.00,,,0.00,0.000000,,2013-07-25 09:43:00,
2013-07-25 02:52:00,64.0,59.0,29.93,West,269,1.0,5.0,85,0.00,,,0.00,0.000000,,2013-07-25 09:52:00,
2013-07-25 03:01:00,64.0,59.0,29.93,West,269,3.0,3.0,85,0.00,,,0.00,0.000000,,2013-07-25 10:01:00,
2013-07-25 03:22:00,64.0,59.0,29.93,West,268,2.0,5.0,85,0.00,,,0.00,0.000000,,2013-07-25 10:22:00,
2013-07-25 03:53:00,63.0,59.0,29.92,West,268,1.0,3.0,86,0.00,,,0.00,0.000000,,2013-07-25 10:53:00,
2013-07-25 04:02:00,63.0,59.0,29.92,West,268,1.0,3.0,86,0.00,,,0.00,0.000000,,2013-07-25 11:02:00,
2013-07-25 04:32:00,63.0,59.0,29.92,West,269,2.0,3.0,86,0.00,,,0.00,0.000000,,2013-07-25 11:32:00,
2013-07-25 04:43:00,63.0,59.0,29.92,West,269,1.0,3.0,86,0.00,,,0.00,0.000000,,2013-07-25 11:43:00,
2013-07-25 05:02:00,63.0,59.0,29.92,West,269,1.0,3.0,86,0.00,,,0.00,0.000000,,2013-07-25 12:02:00,
2013-07-25 05:22:00,63.0,59.0,29.93,West,269,1.0,3.0,86,0.00,,,0.00,0.000000,,2013-07-25 12:22:00,
2013-07-25 05:32:00,63.0,59.0,29.93,West,269,1.0,3.0,86,0.00,,,0.00,0.000000,,2013-07-25 12:32:00,
2013-07-25 05:44:00,63.0,59.0,29.92,West,268,1.0,2.0,86,0.00,,,0.00,0.000000,,2013-07-25 12:44:00,
2013-07-25 05:52:00,63.0,59.0,29.92,West,268,1.0,2.0,86,0.00,,,0.00,0.000000,,2013-07-25 12:52:00,
2013-07-25 06:02:00,63.0,59.0,29.93,West,269,0.0,3.0,86,0.00,,,0.00,0.000000,,2013-07-25 13:02:00,
2013-07-25 06:32:00,63.0,59.0,29.93,West,269,0.0,0.0,87,0.00,,,0.00,5.000000,,2013-07-25 13:32:00,
2013-07-25 07:01:00,63.0,59.0,29.94,West,269,0.0,0.0,87,0.00,,,0.00,39.000000,,2013-07-25 14:01:00,
2013-07-25 07:33:00,64.0,60.0,29.95,West,265,0.0,3.0,86,0.00,,,0.00,72.000000,,2013-07-25 14:33:00,
2013-07-25 07:43:00,64.0,60.0,29.95,West,265,0.0,1.0,86,0.00,,,0.00,93.000000,,2013-07-25 14:43:00,
2013-07-25 07:53:00,64.0,59.0,29.96,West,265,1.0,3.0,85,0.00,,,0.00,83.000000,,2013-07-25 14:53:00,
2013-07-25 08:02:00,64.0,59.0,29.96,West,265,1.0,3.0,85,0.00,,,0.00,83.000000,,2013-07-25 15:02:00,
2013-07-25 08:32:00,65.0,60.0,29.96,West,263,1.0,3.0,84,0.00,,,0.00,130.000000,,2013-07-25 15:32:00,
2013-07-25 08:43:00,66.0,61.0,29.96,West,262,1.0,3.0,83,0.00,,,0.00,304.000000,,2013-07-25 15:43:00,
2013-07-25 08:52:00,66.0,60.0,29.96,SSW,193,2.0,3.0,82,0.00,,,0.00,327.000000,,2013-07-25 15:52:00,
2013-07-25 09:01:00,66.0,60.0,29.96,SSW,193,2.0,3.0,82,0.00,,,0.00,327.000000,,2013-07-25 16:01:00,
2013-07-25 09:53:00,69.0,61.0,29.97,South,184,1.0,7.0,77,0.00,,,0.00,554.000000,,2013-07-25 16:53:00,
2013-07-25 10:02:00,69.0,61.0,29.97,South,184,1.0,7.0,77,0.00,,,0.00,554.000000,,2013-07-25 17:02:00,
2013-07-25 10:32:00,70.0,62.0,29.97,SSW,212,1.0,7.0,76,0.00,,,0.00,642.000000,,2013-07-25 17:32:00,
2013-07-25 10:43:00,71.0,62.0,29.97,SSW,196,2.0,7.0,74,0.00,,,0.00,663.000000,,2013-07-25 17:43:00,
2013-07-25 10:53:00,71.0,62.0,29.97,SSW,196,2.0,7.0,73,0.00,,,0.00,717.000000,,2013-07-25 17:53:00,
2013-07-25 11:01:00,71.0,62.0,29.97,SSW,196,2.0,7.0,73,0.00,,,0.00,717.000000,,2013-07-25 18:01:00,
2013-07-25 11:21:00,73.0,63.0,29.97,SSW,205,5.0,7.0,71,0.00,,,0.00,765.000000,,2013-07-25 18:21:00,
2013-07-25 11:33:00,73.0,63.0,29.96,SSE,157,2.0,6.0,70,0.00,,,0.00,782.000000,,2013-07-25 18:33:00,
2013-07-25 11:42:00,74.0,63.0,29.96,West,259,2.0,6.0,68,0.00,,,0.00,798.000000,,2013-07-25 18:42:00,
2013-07-25 11:52:00,74.0,63.0,29.96,West,259,2.0,6.0,68,0.00,,,0.00,798.000000,,2013-07-25 18:52:00,
2013-07-25 12:02:00,75.0,63.0,29.97,SW,218,3.0,9.0,66,0.00,,,0.00,821.000000,,2013-07-25 19:02:00,
2013-07-25 12:11:00,75.0,63.0,29.97,SW,218,3.0,9.0,66,0.00,,,0.00,821.000000,,2013-07-25 19:11:00,
2013-07-25 12:33:00,76.0,63.0,29.96,SSE,160,3.0,7.0,64,0.00,,,0.00,844.000000,,2013-07-25 19:33:00,
2013-07-25 12:42:00,77.0,63.0,29.96,SSW,203,5.0,7.0,62,0.00,,,0.00,849.000000,,2013-07-25 19:42:00,
2013-07-25 12:52:00,77.0,63.0,29.96,SSE,155,4.0,8.0,61,0.00,,,0.00,860.000000,,2013-07-25 19:52:00,
2013-07-25 13:01:00,77.0,63.0,29.96,SSE,155,4.0,8.0,61,0.00,,,0.00,860.000000,,2013-07-25 20:01:00,
2013-07-25 13:22:00,78.0,63.0,29.96,SSW,199,1.0,9.0,60,0.00,,,0.00,870.000000,,2013-07-25 20:22:00,
2013-07-25 13:32:00,78.0,63.0,29.96,SSW,199,1.0,9.0,60,0.00,,,0.00,870.000000,,2013-07-25 20:32:00,
2013-07-25 13:43:00,79.0,63.0,29.95,SSW,193,5.0,12.0,59,0.00,,,0.00,861.000000,,2013-07-25 20:43:00,
2013-07-25 13:53:00,79.0,63.0,29.95,SSW,193,5.0,12.0,59,0.00,,,0.00,861.000000,,2013-07-25 20:53:00,
2013-07-25 14:02:00,79.0,63.0,29.95,SSW,193,5.0,12.0,59,0.00,,,0.00,861.000000,,2013-07-25 21:02:00,
2013-07-25 14:12:00,79.0,63.0,29.95,SSW,193,5.0,12.0,59,0.00,,,0.00,847.000000,,2013-07-25 21:12:00,
2013-07-25 14:22:00,79.0,63.0,29.94,SSW,205,5.0,10.0,59,0.00,,,0.00,621.000000,,2013-07-25 21:22:00,
2013-07-25 14:32:00,79.0,63.0,29.94,SSW,205,5.0,10.0,59,0.00,,,0.00,621.000000,,2013-07-25 21:32:00,
2013-07-25 14:52:00,80.0,63.0,29.94,SSW,194,4.0,9.0,57,0.00,,,0.00,814.000000,,2013-07-25 21:52:00,
2013-07-25 15:01:00,80.0,63.0,29.94,SSW,194,4.0,9.0,57,0.00,,,0.00,814.000000,,2013-07-25 22:01:00,
2013-07-25 15:22:00,81.0,63.0,29.93,SSW,212,7.0,10.0,55,0.00,,,0.00,747.000000,,2013-07-25 22:22:00,
2013-07-25 15:52:00,82.0,64.0,29.93,South,180,5.0,9.0,54,0.00,,,0.00,691.000000,,2013-07-25 22:52:00,
2013-07-25 16:02:00,82.0,64.0,29.93,South,180,5.0,9.0,54,0.00,,,0.00,691.000000,,2013-07-25 23:02:00,
2013-07-25 16:11:00,81.0,63.0,29.93,South,190,4.0,12.0,55,0.00,,,0.00,664.000000,,2013-07-25 23:11:00,
2013-07-25 16:22:00,81.0,64.0,29.92,WSW,247,4.0,12.0,56,0.00,,,0.00,613.000000,,2013-07-25 23:22:00,
2013-07-25 16:43:00,81.0,63.0,29.92,SW,235,6.0,12.0,54,0.00,,,0.00,592.000000,,2013-07-25 23:43:00,
2013-07-25 16:52:00,81.0,63.0,29.92,SW,235,6.0,12.0,54,0.00,,,0.00,592.000000,,2013-07-25 23:52:00,
2013-07-25 17:22:00,78.0,62.0,29.91,WNW,282,5.0,10.0,58,0.00,,,0.00,450.000000,,2013-07-26 00:22:00,
2013-07-25 17:52:00,77.0,62.0,29.91,WSW,257,6.0,12.0,60,0.00,,,0.00,392.000000,,2013-07-26 00:52:00,
2013-07-25 18:01:00,77.0,62.0,29.91,WSW,257,6.0,12.0,60,0.00,,,0.00,392.000000,,2013-07-26 01:01:00,
2013-07-25 18:22:00,75.0,61.0,29.91,WNW,286,9.0,12.0,62,0.00,,,0.00,302.000000,,2013-07-26 01:22:00,
2013-07-25 18:32:00,75.0,62.0,29.92,WNW,294,6.0,12.0,63,0.00,,,0.00,274.000000,,2013-07-26 01:32:00,
2013-07-25 18:43:00,74.0,61.0,29.92,West,268,8.0,12.0,65,0.00,,,0.00,213.000000,,2013-07-26 01:43:00,
2013-07-25 18:52:00,74.0,61.0,29.92,West,268,8.0,12.0,65,0.00,,,0.00,213.000000,,2013-07-26 01:52:00,
2013-07-25 19:02:00,73.0,62.0,29.93,WSW,257,6.0,10.0,68,0.00,,,0.00,149.000000,,2013-07-26 02:02:00,
2013-07-25 19:21:00,73.0,61.0,29.93,WNW,282,5.0,10.0,67,0.00,,,0.00,116.000000,,2013-07-26 02:21:00,
2013-07-25 19:32:00,73.0,62.0,29.93,West,281,6.0,12.0,68,0.00,,,0.00,88.000000,,2013-07-26 02:32:00,
2013-07-25 19:42:00,72.0,61.0,29.94,WNW,284,6.0,12.0,69,0.00,,,0.00,67.000000,,2013-07-26 02:42:00,
2013-07-25 19:52:00,70.0,61.0,29.94,West,272,6.0,10.0,72,0.00,,,0.00,32.000000,,2013-07-26 02:52:00,
2013-07-25 20:02:00,70.0,61.0,29.95,West,279,6.0,9.0,73,0.00,,,0.00,14.000000,,2013-07-26 03:02:00,
2013-07-25 20:22:00,69.0,60.0,29.95,West,259,5.0,9.0,73,0.00,,,0.00,5.000000,,2013-07-26 03:22:00,
2013-07-25 20:43:00,68.0,60.0,29.96,West,265,5.0,9.0,75,0.00,,,0.00,0.000000,,2013-07-26 03:43:00,
2013-07-25 20:53:00,68.0,60.0,29.96,West,270,5.0,8.0,76,0.00,,,0.00,0.000000,,2013-07-26 03:53:00,
2013-07-25 21:02:00,68.0,60.0,29.97,West,267,3.0,7.0,76,0.00,,,0.00,0.000000,,2013-07-26 04:02:00,
2013-07-25 21:22:00,67.0,60.0,29.98,West,269,3.0,6.0,78,0.00,,,0.00,0.000000,,2013-07-26 04:22:00,
2013-07-25 21:32:00,67.0,60.0,29.98,West,269,3.0,6.0,78,0.00,,,0.00,0.000000,,2013-07-26 04:32:00,
2013-07-25 21:42:00,67.0,60.0,29.99,West,265,3.0,5.0,78,0.00,,,0.00,0.000000,,2013-07-26 04:42:00,
2013-07-25 21:53:00,67.0,60.0,30.00,West,267,3.0,5.0,78,0.00,,,0.00,0.000000,,2013-07-26 04:53:00,
2013-07-25 22:02:00,67.0,60.0,30.00,West,267,3.0,5.0,78,0.00,,,0.00,0.000000,,2013-07-26 05:02:00,
2013-07-25 22:22:00,67.0,60.0,30.00,WSW,257,4.0,7.0,79,0.00,,,0.00,0.000000,,2013-07-26 05:22:00,
2013-07-25 22:32:00,67.0,60.0,29.99,West,263,3.0,8.0,78,0.00,,,0.00,0.000000,,2013-07-26 05:32:00,
2013-07-25 22:52:00,66.0,60.0,30.00,West,273,3.0,7.0,80,0.00,,,0.00,0.000000,,2013-07-26 05:52:00,
2013-07-25 23:02:00,66.0,59.0,30.00,WNW,290,3.0,5.0,79,0.00,,,0.00,0.000000,,2013-07-26 06:02:00,
2013-07-25 23:11:00,66.0,59.0,30.00,WNW,290,3.0,5.0,79,0.00,,,0.00,0.000000,,2013-07-26 06:11:00,
2013-07-25 23:33:00,66.0,59.0,30.00,West,273,2.0,3.0,79,0.00,,,0.00,0.000000,,2013-07-26 06:33:00,
2013-07-25 23:43:00,67.0,60.0,30.00,West,273,2.0,3.0,79,0.00,,,0.00,0.000000,,2013-07-26 06:43:00,
2013-07-25 23:52:00,67.0,60.0,30.00,West,273,2.0,3.0,79,0.00,,,0.00,0.000000,,2013-07-26 06:52:00,